createdAt,value
2017-06-18T00:02:16.439Z,17.30
2017-06-18T00:04:42.972Z,17.30
2017-06-18T00:07:09.505Z,17.20
2017-06-18T00:09:36.016Z,17.30
2017-06-18T00:12:02.432Z,17.20
2017-06-18T00:14:29.117Z,17.20
2017-06-18T00:16:55.570Z,17.20
2017-06-18T00:19:21.948Z,17.30
2017-06-18T00:21:48.366Z,17.30
2017-06-18T00:24:15.549Z,17.40
2017-06-18T00:26:41.946Z,17.40
2017-06-18T00:29:09.136Z,17.70
2017-06-18T00:31:35.581Z,17.60
2017-06-18T00:34:02.662Z,17.70
2017-06-18T00:36:29.865Z,17.70
2017-06-18T00:38:56.514Z,17.60
2017-06-18T00:41:22.964Z,17.60
2017-06-18T00:43:49.390Z,17.70
2017-06-18T00:46:15.828Z,17.60
2017-06-18T00:48:42.260Z,17.60
2017-06-18T00:51:08.658Z,17.50
2017-06-18T00:53:35.150Z,17.50
2017-06-18T00:56:01.595Z,17.50
2017-06-18T00:58:28.061Z,17.20
2017-06-18T01:00:54.582Z,17.20
2017-06-18T01:03:21.023Z,17.10
2017-06-18T01:05:47.752Z,17.00
2017-06-18T01:08:15.094Z,17.00
2017-06-18T01:10:41.546Z,17.00
2017-06-18T01:13:07.952Z,16.90
2017-06-18T01:15:35.157Z,16.60
2017-06-18T01:18:01.601Z,16.60
2017-06-18T01:20:27.999Z,16.70
2017-06-18T01:22:54.601Z,16.70
2017-06-18T01:25:21.721Z,16.70
2017-06-18T01:27:48.144Z,16.70
2017-06-18T01:30:14.586Z,16.70
2017-06-18T01:32:41.022Z,16.60
2017-06-18T01:35:08.397Z,16.60
2017-06-18T01:37:35.591Z,16.50
2017-06-18T01:40:01.999Z,16.50
2017-06-18T01:42:28.423Z,16.50
2017-06-18T01:44:54.909Z,16.50
2017-06-18T01:47:21.314Z,16.40
2017-06-18T01:49:47.746Z,16.40
2017-06-18T01:52:15.161Z,16.40
2017-06-18T01:54:42.331Z,16.30
2017-06-18T01:57:08.761Z,16.30
2017-06-18T01:59:35.270Z,16.30
2017-06-18T02:02:01.966Z,16.30
2017-06-18T02:04:28.386Z,16.30
2017-06-18T02:06:55.696Z,16.30
2017-06-18T02:09:22.142Z,16.30
2017-06-18T02:11:49.862Z,16.20
2017-06-18T02:14:16.444Z,16.00
2017-06-18T02:16:43.621Z,16.20
2017-06-18T02:19:10.113Z,16.20
2017-06-18T02:21:36.559Z,16.20
2017-06-18T02:24:03.740Z,16.20
2017-06-18T02:26:30.164Z,16.20
2017-06-18T02:28:56.769Z,16.20
2017-06-18T02:31:23.903Z,16.30
2017-06-18T02:33:50.330Z,16.20
2017-06-18T02:36:16.784Z,16.20
2017-06-18T02:38:44.900Z,16.20
2017-06-18T02:41:11.353Z,16.20
2017-06-18T02:43:38.029Z,16.20
2017-06-18T02:46:05.184Z,16.20
2017-06-18T02:48:32.384Z,16.20
2017-06-18T02:50:58.805Z,16.10
2017-06-18T02:53:25.220Z,16.00
2017-06-18T02:55:51.659Z,16.20
2017-06-18T02:58:18.123Z,16.20
2017-06-18T03:00:44.557Z,16.10
2017-06-18T03:03:11.017Z,16.20
2017-06-18T03:05:37.452Z,16.20
2017-06-18T03:08:07.784Z,16.20
2017-06-18T03:10:35.785Z,16.30
2017-06-18T03:13:02.221Z,16.30
2017-06-18T03:15:28.619Z,16.40
2017-06-18T03:17:56.035Z,16.40
2017-06-18T03:20:22.545Z,16.40
2017-06-18T03:23:03.865Z,16.40
2017-06-18T03:25:30.313Z,16.50
2017-06-18T03:27:57.570Z,16.50
2017-06-18T03:30:24.579Z,16.50
2017-06-18T03:32:51.013Z,16.50
2017-06-18T03:35:18.075Z,16.50
2017-06-18T03:37:44.475Z,16.50
2017-06-18T03:40:10.929Z,16.50
2017-06-18T03:42:37.326Z,16.50
2017-06-18T03:45:04.368Z,16.60
2017-06-18T03:47:30.942Z,16.60
2017-06-18T03:49:57.379Z,16.60
2017-06-18T03:52:23.830Z,16.70
2017-06-18T03:54:51.158Z,16.80
2017-06-18T03:57:17.548Z,16.80
2017-06-18T03:59:44.024Z,16.80
2017-06-18T04:02:11.371Z,16.80
2017-06-18T04:04:37.768Z,16.80
2017-06-18T04:07:04.192Z,16.90
2017-06-18T04:09:31.384Z,17.00
2017-06-18T04:11:57.796Z,16.90
2017-06-18T04:14:24.224Z,16.90
2017-06-18T04:16:50.666Z,17.10
2017-06-18T04:19:17.101Z,17.30
2017-06-18T04:21:43.509Z,17.30
2017-06-18T04:24:09.906Z,17.40
2017-06-18T04:26:36.317Z,17.30
2017-06-18T04:29:02.722Z,17.40
2017-06-18T04:31:29.193Z,17.50
2017-06-18T04:33:55.756Z,17.40
2017-06-18T04:36:22.992Z,17.50
2017-06-18T04:38:49.433Z,17.50
2017-06-18T04:41:15.839Z,17.60
2017-06-18T04:43:42.228Z,17.60
2017-06-18T04:46:08.839Z,17.40
2017-06-18T04:48:35.242Z,17.40
2017-06-18T04:51:02.304Z,17.30
2017-06-18T04:53:28.747Z,17.20
2017-06-18T04:55:55.167Z,17.10
2017-06-18T04:58:21.590Z,17.20
2017-06-18T05:00:48.061Z,17.20
2017-06-18T05:03:15.246Z,17.40
2017-06-18T05:05:41.678Z,17.40
2017-06-18T05:08:08.099Z,17.40
2017-06-18T05:10:34.524Z,17.40
2017-06-18T05:13:01.045Z,17.50
2017-06-18T05:15:28.255Z,17.50
2017-06-18T05:17:54.693Z,17.50
2017-06-18T05:20:21.089Z,17.50
2017-06-18T05:22:47.567Z,17.60
2017-06-18T05:25:14.168Z,17.60
2017-06-18T05:27:40.596Z,17.70
2017-06-18T05:30:07.691Z,17.70
2017-06-18T05:32:35.569Z,17.80
2017-06-18T05:35:02.830Z,18.00
2017-06-18T05:37:29.997Z,18.20
2017-06-18T05:39:56.429Z,18.10
2017-06-18T05:42:22.847Z,18.10
2017-06-18T05:44:50.055Z,18.20
2017-06-18T05:47:16.466Z,18.20
2017-06-18T05:49:42.864Z,18.30
2017-06-18T05:52:10.062Z,18.40
2017-06-18T05:54:36.550Z,18.30
2017-06-18T05:57:02.963Z,18.60
2017-06-18T05:59:30.163Z,19.00
2017-06-18T06:01:56.593Z,18.90
2017-06-18T06:04:23.209Z,18.90
2017-06-18T06:06:49.679Z,18.90
2017-06-18T06:09:17.707Z,19.30
2017-06-18T06:11:44.167Z,19.70
2017-06-18T06:14:10.621Z,19.90
2017-06-18T06:16:37.049Z,20.00
2017-06-18T06:19:03.472Z,19.80
2017-06-18T06:21:29.964Z,19.70
2017-06-18T06:23:57.170Z,20.00
2017-06-18T06:26:23.640Z,20.00
2017-06-18T06:29:26.004Z,20.10
2017-06-18T06:31:52.752Z,19.80
2017-06-18T06:34:19.909Z,19.50
2017-06-18T06:36:47.098Z,19.70
2017-06-18T06:39:13.878Z,19.60
2017-06-18T06:41:40.411Z,19.70
2017-06-18T06:44:08.011Z,19.90
2017-06-18T06:46:34.456Z,20.10
2017-06-18T06:49:00.910Z,20.30
2017-06-18T06:51:27.335Z,20.80
2017-06-18T06:53:53.790Z,21.10
2017-06-18T06:56:20.416Z,21.10
2017-06-18T06:58:46.977Z,21.30
2017-06-18T07:01:13.588Z,21.50
2017-06-18T07:03:40.013Z,21.40
2017-06-18T07:06:06.598Z,21.50
2017-06-18T07:08:33.767Z,21.80
2017-06-18T07:11:00.913Z,21.90
2017-06-18T07:13:28.099Z,21.80
2017-06-18T07:15:54.538Z,21.80
2017-06-18T07:18:21.935Z,21.90
2017-06-18T07:20:48.480Z,22.20
2017-06-18T07:23:15.669Z,22.10
2017-06-18T07:25:42.128Z,22.00
2017-06-18T07:28:08.617Z,22.10
2017-06-18T07:30:35.076Z,22.00
2017-06-18T07:33:01.509Z,22.40
2017-06-18T07:35:29.803Z,22.50
2017-06-18T07:37:56.232Z,22.90
2017-06-18T07:40:22.668Z,22.90
2017-06-18T07:42:50.474Z,23.20
2017-06-18T07:45:17.715Z,23.10
2017-06-18T07:47:44.916Z,22.90
2017-06-18T07:50:11.343Z,22.90
2017-06-18T07:52:38.581Z,22.40
2017-06-18T07:55:05.113Z,22.20
2017-06-18T07:57:31.573Z,21.90
2017-06-18T07:59:57.990Z,21.40
2017-06-18T08:02:24.559Z,21.70
2017-06-18T08:04:51.093Z,21.60
2017-06-18T08:07:17.553Z,21.60
2017-06-18T08:09:44.765Z,21.60
2017-06-18T08:12:11.247Z,21.60
2017-06-18T08:14:38.428Z,21.40
2017-06-18T08:17:05.086Z,21.30
2017-06-18T08:19:31.567Z,21.70
2017-06-18T08:21:58.939Z,22.00
2017-06-18T08:24:25.457Z,22.00
2017-06-18T08:26:52.842Z,22.40
2017-06-18T08:29:19.531Z,22.40
2017-06-18T08:31:49.077Z,22.60
2017-06-18T08:34:16.806Z,22.50
2017-06-18T08:36:43.311Z,23.30
2017-06-18T08:39:09.837Z,24.40
2017-06-18T08:41:36.302Z,24.70
2017-06-18T08:44:03.049Z,25.30
2017-06-18T08:46:30.510Z,25.50
2017-06-18T08:48:57.793Z,25.20
2017-06-18T08:51:24.281Z,25.20
2017-06-18T08:53:50.716Z,24.60
2017-06-18T08:56:17.320Z,24.50
2017-06-18T08:58:44.002Z,24.10
2017-06-18T09:01:11.997Z,24.10
2017-06-18T09:03:39.686Z,24.10
2017-06-18T09:06:06.266Z,24.10
2017-06-18T09:08:32.797Z,24.60
2017-06-18T09:10:59.398Z,24.80
2017-06-18T09:13:25.844Z,24.80
2017-06-18T09:15:52.269Z,24.80
2017-06-18T09:18:18.944Z,24.90
2017-06-18T09:20:46.166Z,26.10
2017-06-18T09:23:12.687Z,26.10
2017-06-18T09:25:39.202Z,26.40
2017-06-18T09:28:05.665Z,25.80
2017-06-18T09:30:32.405Z,25.90
2017-06-18T09:32:58.904Z,26.20
2017-06-18T09:35:25.396Z,26.40
2017-06-18T09:37:51.900Z,27.00
2017-06-18T09:40:19.479Z,26.40
2017-06-18T09:42:46.249Z,26.80
2017-06-18T09:45:13.479Z,27.80
2017-06-18T09:47:40.025Z,27.80
2017-06-18T09:50:06.595Z,27.40
2017-06-18T09:52:33.088Z,28.20
2017-06-18T09:54:59.742Z,28.50
2017-06-18T09:57:27.258Z,29.80
2017-06-18T10:00:00.829Z,29.70
2017-06-18T10:02:32.763Z,34.10
2017-06-18T10:05:00.380Z,39.20
2017-06-18T10:07:27.405Z,39.00
2017-06-18T10:09:54.365Z,43.60
2017-06-18T10:12:21.619Z,45.00
2017-06-18T10:14:48.181Z,45.50
2017-06-18T10:17:16.601Z,45.90
2017-06-18T10:19:43.089Z,46.20
2017-06-18T10:22:14.409Z,48.90
2017-06-18T10:24:40.858Z,49.50
2017-06-18T10:27:16.312Z,50.60
2017-06-18T10:29:43.080Z,51.90
2017-06-18T10:32:09.536Z,51.90
2017-06-18T10:34:36.055Z,50.50
2017-06-18T10:37:03.481Z,50.50
2017-06-18T10:39:29.955Z,52.70
2017-06-18T10:41:56.565Z,51.30
2017-06-18T10:44:23.158Z,50.00
2017-06-18T10:46:49.659Z,46.00
2017-06-18T10:49:16.289Z,48.30
2017-06-18T10:51:42.798Z,47.70
2017-06-18T10:54:10.140Z,46.70
2017-06-18T10:56:36.765Z,46.30
2017-06-18T10:59:03.650Z,43.90
2017-06-18T11:01:30.780Z,38.30
2017-06-18T11:03:58.697Z,43.00
2017-06-18T11:06:25.222Z,48.90
2017-06-18T11:08:51.692Z,48.40
2017-06-18T11:11:18.201Z,50.20
2017-06-18T11:13:44.844Z,44.20
2017-06-18T11:16:12.032Z,44.20
2017-06-18T11:18:38.750Z,47.10
2017-06-18T11:21:05.244Z,50.70
2017-06-18T11:23:31.760Z,51.60
2017-06-18T11:25:59.753Z,52.10
2017-06-18T11:28:26.289Z,52.30
2017-06-18T11:30:53.135Z,49.90
2017-06-18T11:33:19.673Z,50.40
2017-06-18T11:35:46.874Z,49.70
2017-06-18T11:38:13.360Z,52.30
2017-06-18T11:40:40.369Z,54.30
2017-06-18T11:43:07.558Z,53.30
2017-06-18T11:45:33.984Z,53.20
2017-06-18T11:48:00.567Z,52.80
2017-06-18T11:50:27.037Z,53.00
2017-06-18T11:52:53.506Z,50.70
2017-06-18T11:55:19.930Z,48.80
2017-06-18T11:57:46.365Z,47.50
2017-06-18T12:00:12.811Z,50.70
2017-06-18T12:02:39.314Z,52.30
2017-06-18T12:05:05.765Z,44.40
2017-06-18T12:07:32.194Z,44.20
2017-06-18T12:09:58.836Z,48.80
2017-06-18T12:12:25.322Z,49.60
2017-06-18T12:14:52.510Z,41.40
2017-06-18T12:17:18.984Z,41.20
2017-06-18T12:19:45.427Z,36.60
2017-06-18T12:22:11.837Z,42.20
2017-06-18T12:24:38.272Z,47.10
2017-06-18T12:27:04.773Z,47.50
2017-06-18T12:29:31.210Z,48.40
2017-06-18T12:31:57.726Z,49.80
2017-06-18T12:34:24.206Z,49.50
2017-06-18T12:36:50.679Z,43.20
2017-06-18T12:39:17.926Z,43.80
2017-06-18T12:41:45.077Z,44.60
2017-06-18T12:44:12.224Z,45.30
2017-06-18T12:46:38.692Z,45.20
2017-06-18T12:49:05.293Z,44.40
2017-06-18T12:51:32.474Z,46.00
2017-06-18T12:53:58.966Z,46.00
2017-06-18T12:56:25.416Z,48.20
2017-06-18T12:58:52.597Z,46.40
2017-06-18T13:01:19.210Z,46.40
2017-06-18T13:03:46.419Z,46.30
2017-06-18T13:06:12.965Z,46.30
2017-06-18T13:08:39.462Z,40.50
2017-06-18T13:11:06.089Z,38.80
2017-06-18T13:13:32.640Z,34.50
2017-06-18T13:16:00.606Z,31.40
2017-06-18T13:18:27.071Z,29.70
2017-06-18T13:20:53.574Z,29.60
2017-06-18T13:23:19.977Z,29.60
2017-06-18T13:25:46.403Z,29.10
2017-06-18T13:28:13.599Z,29.10
2017-06-18T13:30:40.101Z,29.10
2017-06-18T13:33:07.554Z,28.70
2017-06-18T13:35:33.987Z,28.40
2017-06-18T13:38:00.417Z,28.20
2017-06-18T13:40:27.683Z,28.30
2017-06-18T13:42:54.105Z,27.80
2017-06-18T13:45:20.508Z,27.40
2017-06-18T13:47:47.304Z,27.30
2017-06-18T13:50:13.717Z,27.40
2017-06-18T13:52:40.184Z,27.30
2017-06-18T13:55:06.602Z,27.30
2017-06-18T13:57:33.063Z,27.00
2017-06-18T14:02:33.585Z,26.80
2017-06-18T14:05:01.462Z,27.30
2017-06-18T14:07:27.931Z,27.40
2017-06-18T14:09:55.285Z,26.80
2017-06-18T14:12:22.476Z,26.90
2017-06-18T14:14:48.960Z,26.90
2017-06-18T14:17:15.420Z,26.50
2017-06-18T14:19:41.863Z,26.70
2017-06-18T14:22:08.278Z,26.80
2017-06-18T14:24:36.336Z,27.10
2017-06-18T14:27:02.824Z,27.10
2017-06-18T14:29:29.263Z,26.70
2017-06-18T14:31:56.256Z,26.10
2017-06-18T14:34:30.669Z,25.30
2017-06-18T14:36:57.930Z,25.10
2017-06-18T14:39:25.126Z,25.30
2017-06-18T14:41:51.622Z,25.30
2017-06-18T14:44:18.037Z,25.40
2017-06-18T14:46:45.209Z,25.90
2017-06-18T14:49:11.641Z,25.90
2017-06-18T14:51:38.060Z,26.00
2017-06-18T14:54:05.247Z,25.80
2017-06-18T14:56:31.670Z,25.80
2017-06-18T14:58:58.092Z,25.90
2017-06-18T15:01:24.726Z,26.00
2017-06-18T15:03:51.216Z,26.10
2017-06-18T15:06:17.661Z,26.10
2017-06-18T15:08:44.094Z,26.00
2017-06-18T15:11:11.102Z,26.00
2017-06-18T15:13:37.509Z,26.10
2017-06-18T15:16:03.932Z,25.90
2017-06-18T15:18:30.342Z,26.00
2017-06-18T15:20:56.840Z,26.10
2017-06-18T15:23:23.372Z,26.10
2017-06-18T15:25:49.813Z,25.80
2017-06-18T15:28:16.308Z,25.80
2017-06-18T15:30:42.880Z,26.30
2017-06-18T15:33:09.502Z,28.40
2017-06-18T15:35:35.985Z,27.90
2017-06-18T15:38:03.255Z,26.70
2017-06-18T15:40:30.489Z,26.30
2017-06-18T15:42:56.892Z,26.30
2017-06-18T15:45:24.277Z,26.00
2017-06-18T15:47:51.459Z,25.80
2017-06-18T15:50:17.947Z,25.70
2017-06-18T15:52:44.356Z,25.80
2017-06-18T15:55:10.864Z,25.90
2017-06-18T15:57:37.392Z,25.80
2017-06-18T16:00:03.887Z,25.60
2017-06-18T16:02:30.306Z,25.50
2017-06-18T16:04:56.709Z,25.30
2017-06-18T16:07:23.774Z,25.30
2017-06-18T16:09:50.444Z,25.30
2017-06-18T16:12:17.049Z,25.30
2017-06-18T16:14:43.507Z,25.20
2017-06-18T16:17:09.928Z,25.30
2017-06-18T16:19:36.352Z,25.10
2017-06-18T16:22:02.777Z,25.10
2017-06-18T16:24:29.211Z,25.10
2017-06-18T16:26:55.644Z,25.00
2017-06-18T16:29:22.099Z,24.90
2017-06-18T16:31:48.668Z,24.90
2017-06-18T16:34:15.255Z,24.80
2017-06-18T16:36:42.643Z,24.70
2017-06-18T16:39:09.815Z,24.70
2017-06-18T16:41:36.259Z,24.70
2017-06-18T16:44:02.671Z,24.70
2017-06-18T16:46:29.823Z,24.70
2017-06-18T16:48:56.258Z,24.70
2017-06-18T16:51:22.704Z,24.60
2017-06-18T16:53:49.312Z,24.50
2017-06-18T16:56:16.520Z,24.50
2017-06-18T16:58:43.064Z,24.50
2017-06-18T17:01:09.517Z,24.40
2017-06-18T17:03:36.061Z,24.30
2017-06-18T17:06:02.529Z,24.30
2017-06-18T17:08:28.944Z,24.30
2017-06-18T17:10:55.563Z,24.30
2017-06-18T17:13:22.000Z,24.30
2017-06-18T17:15:49.322Z,24.20
2017-06-18T17:18:16.140Z,24.20
2017-06-18T17:20:42.657Z,24.20
2017-06-18T17:23:09.276Z,24.20
2017-06-18T17:25:35.728Z,24.20
2017-06-18T17:28:02.197Z,24.30
2017-06-18T17:30:29.670Z,24.20
2017-06-18T17:32:56.161Z,24.10
2017-06-18T17:35:22.649Z,24.10
2017-06-18T17:37:49.242Z,24.00
2017-06-18T17:40:15.690Z,24.00
2017-06-18T17:42:42.101Z,23.90
2017-06-18T17:45:08.546Z,23.90
2017-06-18T17:47:34.997Z,23.80
2017-06-18T17:50:01.433Z,23.70
2017-06-18T17:52:27.890Z,23.70
2017-06-18T17:54:54.340Z,23.70
2017-06-18T17:57:20.854Z,23.60
2017-06-18T17:59:49.035Z,23.50
2017-06-18T18:02:16.263Z,23.50
2017-06-18T18:04:42.968Z,23.50
2017-06-18T18:07:09.452Z,23.40
2017-06-18T18:09:36.670Z,23.40
2017-06-18T18:12:03.112Z,23.40
2017-06-18T18:14:29.546Z,23.30
2017-06-18T18:16:55.994Z,23.30
2017-06-18T18:19:22.507Z,23.20
2017-06-18T18:21:48.977Z,23.20
2017-06-18T18:24:16.148Z,23.10
2017-06-18T18:26:42.568Z,23.10
2017-06-18T18:29:09.016Z,23.00
2017-06-18T18:31:42.498Z,23.00
2017-06-18T18:34:09.209Z,22.90
2017-06-18T18:36:35.654Z,22.80
2017-06-18T18:39:02.960Z,22.60
2017-06-18T18:41:29.426Z,22.60
2017-06-18T18:43:55.848Z,22.50
2017-06-18T18:46:22.366Z,22.40
2017-06-18T18:48:49.070Z,22.50
2017-06-18T18:51:15.521Z,22.40
2017-06-18T18:53:41.974Z,22.40
2017-06-18T18:56:08.628Z,22.30
2017-06-18T18:58:35.122Z,22.20
2017-06-18T19:01:01.606Z,22.10
2017-06-18T19:03:28.085Z,22.00
2017-06-18T19:05:55.156Z,22.00
2017-06-18T19:08:21.609Z,21.90
2017-06-18T19:10:48.076Z,21.80
2017-06-18T19:13:15.482Z,21.70
2017-06-18T19:15:41.907Z,21.60
2017-06-18T19:18:08.454Z,21.60
2017-06-18T19:20:34.993Z,21.60
2017-06-18T19:23:01.464Z,21.60
2017-06-18T19:25:28.761Z,21.60
2017-06-18T19:27:56.154Z,21.50
2017-06-18T19:30:22.662Z,21.60
2017-06-18T19:32:49.236Z,21.50
2017-06-18T19:35:16.474Z,21.30
2017-06-18T19:37:43.160Z,21.30
2017-06-18T19:40:09.653Z,21.30
2017-06-18T19:42:36.100Z,21.20
2017-06-18T19:45:02.766Z,21.20
2017-06-18T19:47:29.228Z,21.10
2017-06-18T19:49:55.769Z,21.20
2017-06-18T19:52:22.261Z,21.20
2017-06-18T19:54:48.934Z,21.20
2017-06-18T19:57:15.622Z,21.10
2017-06-18T19:59:49.511Z,21.00
2017-06-18T20:02:15.981Z,21.00
2017-06-18T20:04:42.523Z,21.00
2017-06-18T20:07:09.439Z,20.90
2017-06-18T20:09:37.135Z,20.90
2017-06-18T20:12:03.996Z,20.90
2017-06-18T20:14:30.507Z,20.70
2017-06-18T20:16:57.218Z,20.60
2017-06-18T20:19:24.436Z,20.40
2017-06-18T20:21:51.157Z,20.40
2017-06-18T20:24:17.789Z,20.40
2017-06-18T20:26:44.556Z,20.20
2017-06-18T20:29:12.364Z,20.30
2017-06-18T20:31:39.051Z,20.10
2017-06-18T20:34:05.538Z,20.00
2017-06-18T20:36:32.014Z,19.90
2017-06-18T20:38:58.632Z,19.90
2017-06-18T20:41:25.576Z,19.90
2017-06-18T20:43:52.054Z,19.70
2017-06-18T20:46:18.807Z,19.60
2017-06-18T20:48:46.093Z,19.90
2017-06-18T20:51:12.612Z,19.90
2017-06-18T20:53:39.182Z,19.90
2017-06-18T20:56:05.641Z,19.80
2017-06-18T20:58:32.353Z,19.90
2017-06-18T21:00:58.798Z,19.80
2017-06-18T21:03:25.319Z,19.70
2017-06-18T21:05:58.921Z,19.70
2017-06-18T21:08:25.372Z,19.70
2017-06-18T21:10:51.816Z,19.70
2017-06-18T21:13:18.298Z,19.50
2017-06-18T21:15:44.723Z,19.50
2017-06-18T21:18:11.217Z,19.40
2017-06-18T21:20:37.746Z,19.30
2017-06-18T21:23:04.215Z,19.30
2017-06-18T21:25:31.299Z,19.40
2017-06-18T21:27:58.034Z,19.30
2017-06-18T21:30:24.489Z,19.30
2017-06-18T21:32:51.016Z,19.30
2017-06-18T21:35:17.518Z,19.20
2017-06-18T21:37:44.053Z,19.10
2017-06-18T21:40:10.550Z,19.10
2017-06-18T21:42:37.860Z,19.10
2017-06-18T21:45:04.352Z,19.10
2017-06-18T21:47:30.985Z,19.10
2017-06-18T21:49:57.740Z,19.00
2017-06-18T21:52:24.842Z,18.80
2017-06-18T21:54:51.499Z,18.60
2017-06-18T21:57:18.005Z,18.70
2017-06-18T21:59:44.470Z,18.60
2017-06-18T22:02:11.713Z,18.90
2017-06-18T22:04:38.262Z,18.80
2017-06-18T22:07:04.799Z,18.90
2017-06-18T22:09:31.999Z,18.80
2017-06-18T22:11:58.672Z,18.70
2017-06-18T22:14:25.121Z,18.70
2017-06-18T22:16:52.281Z,18.70
2017-06-18T22:19:18.777Z,18.70
2017-06-18T22:21:45.410Z,18.80
2017-06-18T22:24:12.034Z,18.70
2017-06-18T22:26:38.602Z,18.70
2017-06-18T22:29:05.407Z,18.70
2017-06-18T22:31:31.847Z,18.60
2017-06-18T22:33:58.293Z,18.60
2017-06-18T22:36:24.769Z,18.60
2017-06-18T22:38:51.280Z,18.60
2017-06-18T22:41:18.462Z,18.50
2017-06-18T22:43:44.904Z,18.50
2017-06-18T22:46:11.366Z,18.50
2017-06-18T22:48:37.889Z,18.40
2017-06-18T22:51:05.455Z,18.40
2017-06-18T22:53:32.085Z,18.40
2017-06-18T22:55:58.536Z,18.40
2017-06-18T22:58:25.538Z,18.30
2017-06-18T23:00:51.988Z,18.40
2017-06-18T23:03:18.437Z,18.40
2017-06-18T23:05:44.863Z,18.40
2017-06-18T23:08:11.300Z,18.30
2017-06-18T23:10:37.816Z,18.20
2017-06-18T23:13:04.242Z,18.10
2017-06-18T23:15:30.877Z,18.10
2017-06-18T23:17:57.352Z,18.10
2017-06-18T23:20:23.852Z,18.00
2017-06-18T23:22:50.280Z,18.00
2017-06-18T23:25:16.725Z,18.00
2017-06-18T23:27:47.997Z,18.00
2017-06-18T23:30:15.458Z,18.00
2017-06-18T23:32:41.970Z,17.90
2017-06-18T23:35:09.147Z,17.80
2017-06-18T23:37:36.292Z,17.80
2017-06-18T23:40:02.868Z,17.80
2017-06-18T23:42:29.304Z,17.70
2017-06-18T23:44:55.777Z,17.70
2017-06-18T23:47:22.258Z,17.70
2017-06-18T23:49:48.699Z,17.70
2017-06-18T23:52:15.336Z,17.70
2017-06-18T23:54:42.591Z,17.70
2017-06-18T23:57:09.156Z,17.70
2017-06-18T23:59:35.619Z,17.70
